Hillsborough, North Carolina
Current Conditions -  °F | °C
As of 10:56 PM on Tuesday 27 Jan 2015 (Local Time) from KIGX Reporting Station
Clear Clear  
Wind Chill: 24°   Ceiling: Unl
Heat Index: 32°   Visibility: 10mi
Dew Point: 12°   Wind: 9mph
Humidity: 44%   Direction: 320°NW
Pressure: 29.98"   Gusts: 18mph
Location:  36.08°N, 79.1°W
Report Text: KIGX 280356Z AUTO 32008G16KT 10SM CLR 00/M11 A2998 RMK AO2 SLP156 T00001111 $
Loading
Personal Weather Stations






























Interactive Weather Map New forecast layout! Learn more

10-Day Weather Forecast

Advertisements
Track Severe Weather on mobile